sensor_id;sensor_type;location;lat;lon;timestamp;P1;durP1;ratioP1;P2;durP2;ratioP2
76131;SDS011;64877;50.994;13.650;2023-04-09T00:01:05;24.95;;;14.85;;
76131;SDS011;64877;50.994;13.650;2023-04-09T00:03:32;22.75;;;13.15;;
76131;SDS011;64877;50.994;13.650;2023-04-09T00:05:58;22.15;;;13.38;;
76131;SDS011;64877;50.994;13.650;2023-04-09T00:08:23;26.42;;;15.20;;
76131;SDS011;64877;50.994;13.650;2023-04-09T00:10:49;23.92;;;13.68;;
76131;SDS011;64877;50.994;13.650;2023-04-09T00:13:15;24.00;;;13.75;;
76131;SDS011;64877;50.994;13.650;2023-04-09T00:15:40;26.80;;;14.95;;
76131;SDS011;64877;50.994;13.650;2023-04-09T00:18:06;24.23;;;13.70;;
76131;SDS011;64877;50.994;13.650;2023-04-09T00:20:31;20.52;;;12.80;;
76131;SDS011;64877;50.994;13.650;2023-04-09T00:22:57;20.67;;;12.40;;
76131;SDS011;64877;50.994;13.650;2023-04-09T00:25:22;27.08;;;14.48;;
76131;SDS011;64877;50.994;13.650;2023-04-09T00:27:48;23.50;;;13.90;;
76131;SDS011;64877;50.994;13.650;2023-04-09T00:30:13;26.77;;;14.50;;
76131;SDS011;64877;50.994;13.650;2023-04-09T00:32:39;23.80;;;14.18;;
76131;SDS011;64877;50.994;13.650;2023-04-09T00:35:05;23.42;;;13.27;;
76131;SDS011;64877;50.994;13.650;2023-04-09T00:37:31;22.42;;;13.43;;
76131;SDS011;64877;50.994;13.650;2023-04-09T00:39:56;25.27;;;14.00;;
76131;SDS011;64877;50.994;13.650;2023-04-09T00:42:22;26.15;;;14.25;;
76131;SDS011;64877;50.994;13.650;2023-04-09T00:44:47;24.40;;;14.02;;
76131;SDS011;64877;50.994;13.650;2023-04-09T00:47:13;23.95;;;13.43;;
76131;SDS011;64877;50.994;13.650;2023-04-09T00:49:38;22.88;;;13.85;;
76131;SDS011;64877;50.994;13.650;2023-04-09T00:52:03;22.83;;;13.45;;
76131;SDS011;64877;50.994;13.650;2023-04-09T00:54:29;24.48;;;14.30;;
76131;SDS011;64877;50.994;13.650;2023-04-09T00:56:55;24.77;;;14.55;;
76131;SDS011;64877;50.994;13.650;2023-04-09T00:59:21;24.35;;;13.00;;
76131;SDS011;64877;50.994;13.650;2023-04-09T01:01:48;24.02;;;14.57;;
76131;SDS011;64877;50.994;13.650;2023-04-09T01:04:14;25.20;;;14.27;;
76131;SDS011;64877;50.994;13.650;2023-04-09T01:06:50;29.63;;;13.88;;
76131;SDS011;64877;50.994;13.650;2023-04-09T01:09:26;24.80;;;13.98;;
76131;SDS011;64877;50.994;13.650;2023-04-09T01:17:30;22.75;;;12.32;;
76131;SDS011;64877;50.994;13.650;2023-04-09T01:20:08;25.38;;;14.35;;
76131;SDS011;64877;50.994;13.650;2023-04-09T01:28:26;27.90;;;14.63;;
76131;SDS011;64877;50.994;13.650;2023-04-09T01:31:17;25.95;;;14.98;;
76131;SDS011;64877;50.994;13.650;2023-04-09T01:33:43;25.40;;;13.57;;
76131;SDS011;64877;50.994;13.650;2023-04-09T01:36:09;24.92;;;14.30;;
76131;SDS011;64877;50.994;13.650;2023-04-09T01:38:35;24.35;;;13.80;;
76131;SDS011;64877;50.994;13.650;2023-04-09T01:41:03;27.42;;;14.50;;
76131;SDS011;64877;50.994;13.650;2023-04-09T01:43:30;23.15;;;13.23;;
76131;SDS011;64877;50.994;13.650;2023-04-09T01:45:58;22.63;;;12.85;;
76131;SDS011;64877;50.994;13.650;2023-04-09T01:48:25;25.80;;;12.95;;
76131;SDS011;64877;50.994;13.650;2023-04-09T01:50:52;24.98;;;13.13;;
76131;SDS011;64877;50.994;13.650;2023-04-09T01:53:18;25.42;;;14.13;;
76131;SDS011;64877;50.994;13.650;2023-04-09T01:55:44;22.50;;;13.23;;
76131;SDS011;64877;50.994;13.650;2023-04-09T01:58:09;26.05;;;15.38;;
76131;SDS011;64877;50.994;13.650;2023-04-09T02:00:37;26.50;;;14.27;;
76131;SDS011;64877;50.994;13.650;2023-04-09T02:03:05;26.30;;;14.20;;
76131;SDS011;64877;50.994;13.650;2023-04-09T02:05:39;23.63;;;12.85;;
76131;SDS011;64877;50.994;13.650;2023-04-09T02:08:09;25.45;;;15.13;;
76131;SDS011;64877;50.994;13.650;2023-04-09T02:10:39;27.95;;;15.45;;
76131;SDS011;64877;50.994;13.650;2023-04-09T02:13:04;26.10;;;13.77;;
76131;SDS011;64877;50.994;13.650;2023-04-09T02:15:35;23.85;;;13.98;;
76131;SDS011;64877;50.994;13.650;2023-04-09T02:20:28;27.33;;;14.55;;
76131;SDS011;64877;50.994;13.650;2023-04-09T02:22:53;27.92;;;14.52;;
76131;SDS011;64877;50.994;13.650;2023-04-09T02:25:20;26.55;;;13.65;;
76131;SDS011;64877;50.994;13.650;2023-04-09T02:27:46;25.95;;;14.48;;
76131;SDS011;64877;50.994;13.650;2023-04-09T02:30:12;26.38;;;14.38;;
76131;SDS011;64877;50.994;13.650;2023-04-09T02:32:37;26.75;;;15.65;;
76131;SDS011;64877;50.994;13.650;2023-04-09T02:35:02;23.90;;;13.55;;
76131;SDS011;64877;50.994;13.650;2023-04-09T02:37:28;25.73;;;14.02;;
76131;SDS011;64877;50.994;13.650;2023-04-09T02:39:53;22.20;;;13.20;;
76131;SDS011;64877;50.994;13.650;2023-04-09T02:42:19;22.52;;;12.43;;
76131;SDS011;64877;50.994;13.650;2023-04-09T02:44:44;24.05;;;14.48;;
76131;SDS011;64877;50.994;13.650;2023-04-09T02:47:09;23.35;;;13.23;;
76131;SDS011;64877;50.994;13.650;2023-04-09T02:49:35;22.90;;;13.32;;
76131;SDS011;64877;50.994;13.650;2023-04-09T02:52:00;23.90;;;13.60;;
76131;SDS011;64877;50.994;13.650;2023-04-09T02:54:26;25.30;;;14.18;;
76131;SDS011;64877;50.994;13.650;2023-04-09T02:56:51;24.52;;;12.93;;
76131;SDS011;64877;50.994;13.650;2023-04-09T02:59:16;26.15;;;13.60;;
76131;SDS011;64877;50.994;13.650;2023-04-09T03:01:42;30.33;;;14.93;;
76131;SDS011;64877;50.994;13.650;2023-04-09T03:04:07;25.13;;;13.68;;
76131;SDS011;64877;50.994;13.650;2023-04-09T03:06:33;23.55;;;12.90;;
76131;SDS011;64877;50.994;13.650;2023-04-09T03:08:58;22.92;;;13.70;;
76131;SDS011;64877;50.994;13.650;2023-04-09T03:11:24;24.65;;;13.65;;
76131;SDS011;64877;50.994;13.650;2023-04-09T03:13:49;22.58;;;12.60;;
76131;SDS011;64877;50.994;13.650;2023-04-09T03:16:14;25.73;;;13.35;;
76131;SDS011;64877;50.994;13.650;2023-04-09T03:18:40;23.80;;;13.52;;
76131;SDS011;64877;50.994;13.650;2023-04-09T03:21:05;22.83;;;13.77;;
76131;SDS011;64877;50.994;13.650;2023-04-09T03:23:31;24.35;;;13.93;;
76131;SDS011;64877;50.994;13.650;2023-04-09T03:26:05;24.10;;;13.82;;
76131;SDS011;64877;50.994;13.650;2023-04-09T03:28:31;21.38;;;12.98;;
76131;SDS011;64877;50.994;13.650;2023-04-09T03:30:56;23.42;;;13.30;;
76131;SDS011;64877;50.994;13.650;2023-04-09T03:33:22;21.95;;;13.10;;
76131;SDS011;64877;50.994;13.650;2023-04-09T03:35:48;20.48;;;11.90;;
76131;SDS011;64877;50.994;13.650;2023-04-09T03:38:13;23.80;;;13.57;;
76131;SDS011;64877;50.994;13.650;2023-04-09T03:40:39;25.70;;;14.27;;
76131;SDS011;64877;50.994;13.650;2023-04-09T03:43:06;22.38;;;12.85;;
76131;SDS011;64877;50.994;13.650;2023-04-09T03:45:31;23.75;;;13.27;;
76131;SDS011;64877;50.994;13.650;2023-04-09T03:47:56;26.92;;;15.27;;
76131;SDS011;64877;50.994;13.650;2023-04-09T03:50:22;26.90;;;15.65;;
76131;SDS011;64877;50.994;13.650;2023-04-09T03:52:47;25.00;;;15.05;;
76131;SDS011;64877;50.994;13.650;2023-04-09T03:55:12;27.33;;;13.98;;
76131;SDS011;64877;50.994;13.650;2023-04-09T03:57:38;26.10;;;14.90;;
76131;SDS011;64877;50.994;13.650;2023-04-09T04:00:03;24.70;;;14.50;;
76131;SDS011;64877;50.994;13.650;2023-04-09T04:02:29;28.48;;;14.55;;
76131;SDS011;64877;50.994;13.650;2023-04-09T04:04:58;27.15;;;15.70;;
76131;SDS011;64877;50.994;13.650;2023-04-09T04:07:23;25.05;;;14.85;;
76131;SDS011;64877;50.994;13.650;2023-04-09T04:09:49;25.85;;;15.25;;
76131;SDS011;64877;50.994;13.650;2023-04-09T04:12:15;26.30;;;14.23;;
76131;SDS011;64877;50.994;13.650;2023-04-09T04:14:40;30.48;;;15.80;;
76131;SDS011;64877;50.994;13.650;2023-04-09T04:17:05;30.35;;;15.40;;
76131;SDS011;64877;50.994;13.650;2023-04-09T04:19:31;27.60;;;15.77;;
76131;SDS011;64877;50.994;13.650;2023-04-09T04:21:56;26.88;;;15.07;;
76131;SDS011;64877;50.994;13.650;2023-04-09T04:24:21;25.77;;;15.13;;
76131;SDS011;64877;50.994;13.650;2023-04-09T04:26:47;23.25;;;13.40;;
76131;SDS011;64877;50.994;13.650;2023-04-09T04:29:12;25.98;;;14.38;;
76131;SDS011;64877;50.994;13.650;2023-04-09T04:31:38;25.05;;;14.23;;
76131;SDS011;64877;50.994;13.650;2023-04-09T04:34:03;23.50;;;13.50;;
76131;SDS011;64877;50.994;13.650;2023-04-09T04:36:28;26.15;;;14.73;;
76131;SDS011;64877;50.994;13.650;2023-04-09T04:38:54;27.80;;;15.32;;
76131;SDS011;64877;50.994;13.650;2023-04-09T04:41:20;28.88;;;15.73;;
76131;SDS011;64877;50.994;13.650;2023-04-09T04:43:45;26.98;;;14.93;;
76131;SDS011;64877;50.994;13.650;2023-04-09T04:46:11;25.17;;;14.95;;
76131;SDS011;64877;50.994;13.650;2023-04-09T04:48:36;26.98;;;15.13;;
76131;SDS011;64877;50.994;13.650;2023-04-09T04:51:02;29.98;;;16.10;;
76131;SDS011;64877;50.994;13.650;2023-04-09T04:53:27;27.38;;;15.48;;
76131;SDS011;64877;50.994;13.650;2023-04-09T04:55:52;25.48;;;14.38;;
76131;SDS011;64877;50.994;13.650;2023-04-09T04:58:18;26.98;;;15.05;;
76131;SDS011;64877;50.994;13.650;2023-04-09T05:00:44;25.25;;;15.13;;
76131;SDS011;64877;50.994;13.650;2023-04-09T05:03:09;24.15;;;14.68;;
76131;SDS011;64877;50.994;13.650;2023-04-09T05:05:35;27.30;;;16.13;;
76131;SDS011;64877;50.994;13.650;2023-04-09T05:08:00;27.58;;;15.40;;
76131;SDS011;64877;50.994;13.650;2023-04-09T05:10:26;26.60;;;15.95;;
76131;SDS011;64877;50.994;13.650;2023-04-09T05:12:51;26.77;;;16.05;;
76131;SDS011;64877;50.994;13.650;2023-04-09T05:15:17;28.27;;;16.23;;
76131;SDS011;64877;50.994;13.650;2023-04-09T05:17:42;27.25;;;14.75;;
76131;SDS011;64877;50.994;13.650;2023-04-09T05:20:08;26.13;;;15.27;;
76131;SDS011;64877;50.994;13.650;2023-04-09T05:22:35;25.48;;;13.95;;
76131;SDS011;64877;50.994;13.650;2023-04-09T05:25:00;26.95;;;14.70;;
76131;SDS011;64877;50.994;13.650;2023-04-09T05:27:26;25.63;;;14.13;;
76131;SDS011;64877;50.994;13.650;2023-04-09T05:29:52;27.05;;;14.45;;
76131;SDS011;64877;50.994;13.650;2023-04-09T05:32:17;30.15;;;16.10;;
76131;SDS011;64877;50.994;13.650;2023-04-09T05:34:43;28.17;;;15.82;;
76131;SDS011;64877;50.994;13.650;2023-04-09T05:37:08;25.60;;;14.48;;
76131;SDS011;64877;50.994;13.650;2023-04-09T05:39:33;26.98;;;15.35;;
76131;SDS011;64877;50.994;13.650;2023-04-09T05:41:59;25.05;;;15.20;;
76131;SDS011;64877;50.994;13.650;2023-04-09T05:44:25;27.52;;;15.75;;
76131;SDS011;64877;50.994;13.650;2023-04-09T05:46:50;27.70;;;15.63;;
76131;SDS011;64877;50.994;13.650;2023-04-09T05:49:16;31.45;;;17.40;;
76131;SDS011;64877;50.994;13.650;2023-04-09T05:51:41;28.65;;;15.18;;
76131;SDS011;64877;50.994;13.650;2023-04-09T05:54:08;30.95;;;15.73;;
76131;SDS011;64877;50.994;13.650;2023-04-09T05:56:33;28.73;;;16.90;;
76131;SDS011;64877;50.994;13.650;2023-04-09T05:58:59;27.38;;;16.10;;
76131;SDS011;64877;50.994;13.650;2023-04-09T06:01:24;26.80;;;15.52;;
76131;SDS011;64877;50.994;13.650;2023-04-09T06:03:50;29.15;;;15.88;;
76131;SDS011;64877;50.994;13.650;2023-04-09T06:06:15;28.95;;;16.73;;
76131;SDS011;64877;50.994;13.650;2023-04-09T06:08:40;27.67;;;15.88;;
76131;SDS011;64877;50.994;13.650;2023-04-09T06:11:10;23.75;;;14.55;;
76131;SDS011;64877;50.994;13.650;2023-04-09T06:13:36;22.25;;;14.07;;
76131;SDS011;64877;50.994;13.650;2023-04-09T06:16:05;24.23;;;15.18;;
76131;SDS011;64877;50.994;13.650;2023-04-09T06:18:31;21.50;;;13.77;;
76131;SDS011;64877;50.994;13.650;2023-04-09T06:21:03;23.50;;;13.88;;
76131;SDS011;64877;50.994;13.650;2023-04-09T06:23:30;22.45;;;13.60;;
76131;SDS011;64877;50.994;13.650;2023-04-09T06:25:56;24.13;;;14.85;;
76131;SDS011;64877;50.994;13.650;2023-04-09T06:28:21;22.35;;;13.32;;
76131;SDS011;64877;50.994;13.650;2023-04-09T06:30:47;21.42;;;13.02;;
76131;SDS011;64877;50.994;13.650;2023-04-09T06:33:13;22.83;;;13.93;;
76131;SDS011;64877;50.994;13.650;2023-04-09T06:35:38;22.50;;;14.13;;
76131;SDS011;64877;50.994;13.650;2023-04-09T06:38:03;21.08;;;13.70;;
76131;SDS011;64877;50.994;13.650;2023-04-09T06:40:29;23.40;;;14.75;;
76131;SDS011;64877;50.994;13.650;2023-04-09T06:42:54;23.17;;;13.95;;
76131;SDS011;64877;50.994;13.650;2023-04-09T06:45:20;27.60;;;14.10;;
76131;SDS011;64877;50.994;13.650;2023-04-09T06:47:45;21.58;;;14.05;;
76131;SDS011;64877;50.994;13.650;2023-04-09T06:50:11;22.08;;;14.30;;
76131;SDS011;64877;50.994;13.650;2023-04-09T06:52:36;23.10;;;14.82;;
76131;SDS011;64877;50.994;13.650;2023-04-09T06:55:02;21.20;;;13.77;;
76131;SDS011;64877;50.994;13.650;2023-04-09T06:57:27;24.60;;;14.93;;
76131;SDS011;64877;50.994;13.650;2023-04-09T06:59:52;26.60;;;16.52;;
76131;SDS011;64877;50.994;13.650;2023-04-09T07:02:18;21.98;;;14.13;;
76131;SDS011;64877;50.994;13.650;2023-04-09T07:04:43;22.98;;;15.25;;
76131;SDS011;64877;50.994;13.650;2023-04-09T07:07:09;24.08;;;15.57;;
76131;SDS011;64877;50.994;13.650;2023-04-09T07:09:34;22.17;;;13.93;;
76131;SDS011;64877;50.994;13.650;2023-04-09T07:12:00;22.50;;;14.95;;
76131;SDS011;64877;50.994;13.650;2023-04-09T07:14:25;20.50;;;13.70;;
76131;SDS011;64877;50.994;13.650;2023-04-09T07:16:51;21.45;;;14.60;;
76131;SDS011;64877;50.994;13.650;2023-04-09T07:19:16;24.58;;;15.38;;
76131;SDS011;64877;50.994;13.650;2023-04-09T07:21:41;25.42;;;16.15;;
76131;SDS011;64877;50.994;13.650;2023-04-09T07:24:07;23.98;;;15.63;;
76131;SDS011;64877;50.994;13.650;2023-04-09T07:26:32;20.92;;;14.65;;
76131;SDS011;64877;50.994;13.650;2023-04-09T07:28:58;22.92;;;14.98;;
76131;SDS011;64877;50.994;13.650;2023-04-09T07:31:23;24.25;;;15.35;;
76131;SDS011;64877;50.994;13.650;2023-04-09T07:33:48;21.50;;;14.63;;
76131;SDS011;64877;50.994;13.650;2023-04-09T07:36:14;18.70;;;13.27;;
76131;SDS011;64877;50.994;13.650;2023-04-09T07:38:39;21.45;;;13.48;;
76131;SDS011;64877;50.994;13.650;2023-04-09T07:41:05;21.63;;;13.23;;
76131;SDS011;64877;50.994;13.650;2023-04-09T07:43:30;19.27;;;12.93;;
76131;SDS011;64877;50.994;13.650;2023-04-09T07:45:56;19.60;;;13.43;;
76131;SDS011;64877;50.994;13.650;2023-04-09T07:48:21;20.40;;;13.27;;
76131;SDS011;64877;50.994;13.650;2023-04-09T07:50:47;25.67;;;13.35;;
76131;SDS011;64877;50.994;13.650;2023-04-09T07:53:12;21.45;;;14.30;;
76131;SDS011;64877;50.994;13.650;2023-04-09T07:55:38;20.88;;;13.45;;
76131;SDS011;64877;50.994;13.650;2023-04-09T07:58:04;20.67;;;13.90;;
76131;SDS011;64877;50.994;13.650;2023-04-09T08:00:30;21.73;;;14.25;;
76131;SDS011;64877;50.994;13.650;2023-04-09T08:02:55;23.08;;;14.45;;
76131;SDS011;64877;50.994;13.650;2023-04-09T08:05:21;20.73;;;14.10;;
76131;SDS011;64877;50.994;13.650;2023-04-09T08:07:47;21.13;;;13.98;;
76131;SDS011;64877;50.994;13.650;2023-04-09T08:10:12;22.88;;;14.25;;
76131;SDS011;64877;50.994;13.650;2023-04-09T08:12:40;23.25;;;13.88;;
76131;SDS011;64877;50.994;13.650;2023-04-09T08:15:05;20.23;;;13.43;;
76131;SDS011;64877;50.994;13.650;2023-04-09T08:17:31;19.17;;;12.85;;
76131;SDS011;64877;50.994;13.650;2023-04-09T08:19:57;20.23;;;13.15;;
76131;SDS011;64877;50.994;13.650;2023-04-09T08:22:22;21.30;;;13.30;;
76131;SDS011;64877;50.994;13.650;2023-04-09T08:24:51;21.27;;;13.25;;
76131;SDS011;64877;50.994;13.650;2023-04-09T08:27:17;20.95;;;12.88;;
76131;SDS011;64877;50.994;13.650;2023-04-09T08:29:43;20.35;;;12.93;;
76131;SDS011;64877;50.994;13.650;2023-04-09T08:32:08;22.08;;;14.02;;
76131;SDS011;64877;50.994;13.650;2023-04-09T08:34:34;21.42;;;14.25;;
76131;SDS011;64877;50.994;13.650;2023-04-09T08:36:59;21.10;;;13.57;;
76131;SDS011;64877;50.994;13.650;2023-04-09T08:39:25;21.35;;;13.90;;
76131;SDS011;64877;50.994;13.650;2023-04-09T08:41:51;17.73;;;12.50;;
76131;SDS011;64877;50.994;13.650;2023-04-09T08:44:17;17.85;;;12.02;;
76131;SDS011;64877;50.994;13.650;2023-04-09T08:46:42;19.00;;;12.05;;
76131;SDS011;64877;50.994;13.650;2023-04-09T08:49:08;19.63;;;12.05;;
76131;SDS011;64877;50.994;13.650;2023-04-09T08:51:37;19.35;;;12.27;;
76131;SDS011;64877;50.994;13.650;2023-04-09T08:54:03;19.63;;;12.40;;
76131;SDS011;64877;50.994;13.650;2023-04-09T08:56:29;19.65;;;12.38;;
76131;SDS011;64877;50.994;13.650;2023-04-09T08:58:54;18.98;;;11.95;;
76131;SDS011;64877;50.994;13.650;2023-04-09T09:01:26;20.08;;;13.00;;
76131;SDS011;64877;50.994;13.650;2023-04-09T09:06:23;19.80;;;13.02;;
76131;SDS011;64877;50.994;13.650;2023-04-09T09:09:01;17.75;;;12.85;;
76131;SDS011;64877;50.994;13.650;2023-04-09T09:14:08;19.08;;;13.20;;
76131;SDS011;64877;50.994;13.650;2023-04-09T09:16:39;16.23;;;12.02;;
76131;SDS011;64877;50.994;13.650;2023-04-09T09:19:30;16.08;;;11.73;;
76131;SDS011;64877;50.994;13.650;2023-04-09T09:21:58;15.98;;;11.40;;
76131;SDS011;64877;50.994;13.650;2023-04-09T09:24:30;19.30;;;12.93;;
76131;SDS011;64877;50.994;13.650;2023-04-09T09:26:56;19.00;;;13.52;;
76131;SDS011;64877;50.994;13.650;2023-04-09T09:29:22;22.58;;;14.30;;
76131;SDS011;64877;50.994;13.650;2023-04-09T09:31:49;20.27;;;13.85;;
76131;SDS011;64877;50.994;13.650;2023-04-09T09:34:16;20.80;;;13.00;;
76131;SDS011;64877;50.994;13.650;2023-04-09T09:36:42;20.55;;;13.25;;
76131;SDS011;64877;50.994;13.650;2023-04-09T09:39:08;20.10;;;13.73;;
76131;SDS011;64877;50.994;13.650;2023-04-09T09:41:34;24.08;;;15.40;;
76131;SDS011;64877;50.994;13.650;2023-04-09T09:44:00;20.38;;;12.63;;
76131;SDS011;64877;50.994;13.650;2023-04-09T09:48:55;18.83;;;13.02;;
76131;SDS011;64877;50.994;13.650;2023-04-09T09:51:21;21.23;;;14.05;;
76131;SDS011;64877;50.994;13.650;2023-04-09T09:53:51;20.30;;;12.88;;
76131;SDS011;64877;50.994;13.650;2023-04-09T09:56:21;20.45;;;13.90;;
76131;SDS011;64877;50.994;13.650;2023-04-09T10:01:43;19.92;;;13.23;;
76131;SDS011;64877;50.994;13.650;2023-04-09T10:04:13;21.98;;;13.82;;
76131;SDS011;64877;50.994;13.650;2023-04-09T10:06:43;22.40;;;13.57;;
76131;SDS011;64877;50.994;13.650;2023-04-09T10:09:10;20.48;;;12.68;;
76131;SDS011;64877;50.994;13.650;2023-04-09T10:11:36;20.23;;;13.00;;
76131;SDS011;64877;50.994;13.650;2023-04-09T10:14:06;18.92;;;13.23;;
76131;SDS011;64877;50.994;13.650;2023-04-09T10:16:32;56.28;;;17.33;;
76131;SDS011;64877;50.994;13.650;2023-04-09T10:18:58;19.25;;;12.73;;
76131;SDS011;64877;50.994;13.650;2023-04-09T10:24:07;22.48;;;13.50;;
76131;SDS011;64877;50.994;13.650;2023-04-09T10:26:33;21.30;;;13.85;;
76131;SDS011;64877;50.994;13.650;2023-04-09T10:29:07;21.17;;;12.93;;
76131;SDS011;64877;50.994;13.650;2023-04-09T10:31:51;21.67;;;14.20;;
76131;SDS011;64877;50.994;13.650;2023-04-09T10:36:59;23.17;;;14.60;;
76131;SDS011;64877;50.994;13.650;2023-04-09T10:39:25;20.88;;;13.40;;
76131;SDS011;64877;50.994;13.650;2023-04-09T10:44:22;19.98;;;13.05;;
76131;SDS011;64877;50.994;13.650;2023-04-09T10:46:51;18.02;;;11.95;;
76131;SDS011;64877;50.994;13.650;2023-04-09T10:49:26;18.80;;;12.82;;
76131;SDS011;64877;50.994;13.650;2023-04-09T10:52:08;21.60;;;13.68;;
76131;SDS011;64877;50.994;13.650;2023-04-09T10:54:36;18.92;;;12.35;;
76131;SDS011;64877;50.994;13.650;2023-04-09T10:59:31;19.98;;;12.73;;
76131;SDS011;64877;50.994;13.650;2023-04-09T11:01:59;17.52;;;12.07;;
76131;SDS011;64877;50.994;13.650;2023-04-09T11:04:32;20.30;;;13.60;;
76131;SDS011;64877;50.994;13.650;2023-04-09T11:07:22;21.90;;;13.95;;
76131;SDS011;64877;50.994;13.650;2023-04-09T11:09:49;22.13;;;13.68;;
76131;SDS011;64877;50.994;13.650;2023-04-09T11:12:15;19.90;;;13.65;;
76131;SDS011;64877;50.994;13.650;2023-04-09T11:14:40;20.20;;;13.30;;
76131;SDS011;64877;50.994;13.650;2023-04-09T11:17:05;20.20;;;13.13;;
76131;SDS011;64877;50.994;13.650;2023-04-09T11:19:34;25.17;;;16.10;;
76131;SDS011;64877;50.994;13.650;2023-04-09T11:22:02;22.65;;;14.30;;
76131;SDS011;64877;50.994;13.650;2023-04-09T11:24:42;20.33;;;13.65;;
76131;SDS011;64877;50.994;13.650;2023-04-09T11:27:09;22.20;;;14.65;;
76131;SDS011;64877;50.994;13.650;2023-04-09T11:29:35;24.77;;;14.98;;
76131;SDS011;64877;50.994;13.650;2023-04-09T11:32:00;22.52;;;14.95;;
76131;SDS011;64877;50.994;13.650;2023-04-09T11:34:27;26.17;;;15.15;;
76131;SDS011;64877;50.994;13.650;2023-04-09T11:36:52;22.83;;;15.10;;
76131;SDS011;64877;50.994;13.650;2023-04-09T11:39:18;24.38;;;14.77;;
76131;SDS011;64877;50.994;13.650;2023-04-09T11:41:43;25.73;;;15.77;;
76131;SDS011;64877;50.994;13.650;2023-04-09T11:44:09;24.10;;;13.95;;
76131;SDS011;64877;50.994;13.650;2023-04-09T11:46:34;21.00;;;13.52;;
76131;SDS011;64877;50.994;13.650;2023-04-09T11:49:02;21.08;;;13.68;;
76131;SDS011;64877;50.994;13.650;2023-04-09T11:51:28;20.23;;;12.63;;
76131;SDS011;64877;50.994;13.650;2023-04-09T11:54:06;21.55;;;13.73;;
76131;SDS011;64877;50.994;13.650;2023-04-09T11:56:33;17.70;;;12.27;;
76131;SDS011;64877;50.994;13.650;2023-04-09T11:59:00;20.90;;;13.77;;
76131;SDS011;64877;50.994;13.650;2023-04-09T12:01:30;18.58;;;12.27;;
76131;SDS011;64877;50.994;13.650;2023-04-09T12:03:57;18.63;;;13.27;;
76131;SDS011;64877;50.994;13.650;2023-04-09T12:06:23;21.00;;;13.00;;
76131;SDS011;64877;50.994;13.650;2023-04-09T12:08:52;20.58;;;12.88;;
76131;SDS011;64877;50.994;13.650;2023-04-09T12:11:18;18.60;;;12.90;;
76131;SDS011;64877;50.994;13.650;2023-04-09T12:13:44;17.23;;;11.98;;
76131;SDS011;64877;50.994;13.650;2023-04-09T12:16:11;20.63;;;12.95;;
76131;SDS011;64877;50.994;13.650;2023-04-09T12:18:38;18.83;;;12.25;;
76131;SDS011;64877;50.994;13.650;2023-04-09T12:21:04;17.13;;;11.88;;
76131;SDS011;64877;50.994;13.650;2023-04-09T12:23:30;19.98;;;13.07;;
76131;SDS011;64877;50.994;13.650;2023-04-09T12:25:57;17.52;;;11.77;;
76131;SDS011;64877;50.994;13.650;2023-04-09T12:28:26;18.77;;;12.68;;
76131;SDS011;64877;50.994;13.650;2023-04-09T12:30:52;18.13;;;11.88;;
76131;SDS011;64877;50.994;13.650;2023-04-09T12:33:18;18.75;;;12.63;;
76131;SDS011;64877;50.994;13.650;2023-04-09T12:35:44;19.75;;;11.82;;
76131;SDS011;64877;50.994;13.650;2023-04-09T12:38:10;22.83;;;14.55;;
76131;SDS011;64877;50.994;13.650;2023-04-09T12:40:35;22.77;;;14.57;;
76131;SDS011;64877;50.994;13.650;2023-04-09T12:43:01;23.38;;;14.98;;
76131;SDS011;64877;50.994;13.650;2023-04-09T12:45:27;24.02;;;14.68;;
76131;SDS011;64877;50.994;13.650;2023-04-09T12:47:53;20.63;;;14.10;;
76131;SDS011;64877;50.994;13.650;2023-04-09T12:50:19;22.27;;;14.15;;
76131;SDS011;64877;50.994;13.650;2023-04-09T12:52:44;20.50;;;13.02;;
76131;SDS011;64877;50.994;13.650;2023-04-09T12:55:11;19.55;;;13.43;;
76131;SDS011;64877;50.994;13.650;2023-04-09T12:57:37;22.73;;;13.50;;
76131;SDS011;64877;50.994;13.650;2023-04-09T13:00:04;20.33;;;13.60;;
76131;SDS011;64877;50.994;13.650;2023-04-09T13:02:31;18.67;;;12.40;;
76131;SDS011;64877;50.994;13.650;2023-04-09T13:04:58;21.00;;;12.98;;
76131;SDS011;64877;50.994;13.650;2023-04-09T13:07:23;19.30;;;13.00;;
76131;SDS011;64877;50.994;13.650;2023-04-09T13:09:50;19.20;;;13.20;;
76131;SDS011;64877;50.994;13.650;2023-04-09T13:12:16;19.65;;;13.18;;
76131;SDS011;64877;50.994;13.650;2023-04-09T13:14:45;19.17;;;13.07;;
76131;SDS011;64877;50.994;13.650;2023-04-09T13:17:12;19.35;;;12.63;;
76131;SDS011;64877;50.994;13.650;2023-04-09T13:19:38;18.48;;;12.73;;
76131;SDS011;64877;50.994;13.650;2023-04-09T13:22:06;19.20;;;13.35;;
76131;SDS011;64877;50.994;13.650;2023-04-09T13:24:34;18.13;;;12.18;;
76131;SDS011;64877;50.994;13.650;2023-04-09T13:27:00;19.58;;;12.90;;
76131;SDS011;64877;50.994;13.650;2023-04-09T13:29:27;18.98;;;12.25;;
76131;SDS011;64877;50.994;13.650;2023-04-09T13:31:54;18.73;;;13.15;;
76131;SDS011;64877;50.994;13.650;2023-04-09T13:36:46;25.13;;;14.97;;
76131;SDS011;64877;50.994;13.650;2023-04-09T13:39:11;23.90;;;16.33;;
76131;SDS011;64877;50.994;13.650;2023-04-09T13:41:36;26.50;;;15.80;;
76131;SDS011;64877;50.994;13.650;2023-04-09T13:44:02;25.73;;;16.05;;
76131;SDS011;64877;50.994;13.650;2023-04-09T13:46:28;23.00;;;13.88;;
76131;SDS011;64877;50.994;13.650;2023-04-09T13:48:53;20.42;;;12.98;;
76131;SDS011;64877;50.994;13.650;2023-04-09T13:51:20;22.42;;;13.98;;
76131;SDS011;64877;50.994;13.650;2023-04-09T13:53:46;22.50;;;14.55;;
76131;SDS011;64877;50.994;13.650;2023-04-09T13:56:12;20.42;;;13.80;;
76131;SDS011;64877;50.994;13.650;2023-04-09T13:58:37;19.48;;;13.05;;
76131;SDS011;64877;50.994;13.650;2023-04-09T14:01:03;19.20;;;13.00;;
76131;SDS011;64877;50.994;13.650;2023-04-09T14:03:30;19.17;;;12.82;;
76131;SDS011;64877;50.994;13.650;2023-04-09T14:05:55;16.70;;;12.15;;
76131;SDS011;64877;50.994;13.650;2023-04-09T14:08:21;17.58;;;12.23;;
76131;SDS011;64877;50.994;13.650;2023-04-09T14:10:46;18.52;;;12.80;;
76131;SDS011;64877;50.994;13.650;2023-04-09T14:13:12;18.15;;;12.10;;
76131;SDS011;64877;50.994;13.650;2023-04-09T14:15:37;18.55;;;11.75;;
76131;SDS011;64877;50.994;13.650;2023-04-09T14:18:03;17.70;;;12.43;;
76131;SDS011;64877;50.994;13.650;2023-04-09T14:20:29;17.15;;;11.75;;
76131;SDS011;64877;50.994;13.650;2023-04-09T14:22:54;18.52;;;11.68;;
76131;SDS011;64877;50.994;13.650;2023-04-09T14:25:20;18.27;;;12.35;;
76131;SDS011;64877;50.994;13.650;2023-04-09T14:27:45;16.05;;;10.82;;
76131;SDS011;64877;50.994;13.650;2023-04-09T14:30:11;16.75;;;11.82;;
76131;SDS011;64877;50.994;13.650;2023-04-09T14:32:37;16.02;;;11.50;;
76131;SDS011;64877;50.994;13.650;2023-04-09T14:35:02;16.75;;;11.45;;
76131;SDS011;64877;50.994;13.650;2023-04-09T14:37:28;18.67;;;11.48;;
76131;SDS011;64877;50.994;13.650;2023-04-09T14:39:53;17.30;;;11.65;;
76131;SDS011;64877;50.994;13.650;2023-04-09T14:42:19;18.10;;;12.13;;